Rio Pico, Argentina
Current Conditions -  °F | °C
As of 2:00 PM on Friday 31 Oct 2014 (Local Time) from SCAP Reporting Station
Clear Clear  
Wind Chill: 46°   Ceiling: Unl
Heat Index: 48°   Visibility: NA
Dew Point: 25°   Wind: 5mph
Humidity: 40%   Direction: 230°SW
Pressure: 30.36"   Gusts: NA
Location:  44.2°S, 71.35°W
Report Text: SCAP 311700Z AUTO 23004KT 190V280 //// // NSC 09/M04 Q1028
Loading
Personal Weather Stations






























Interactive Weather Map New forecast layout! Learn more

10-Day Weather Forecast

Advertisements
Track Severe Weather on mobile